Time;durP1;ratioP1;P1;durP2;ratioP2;P2;SDS_P1;SDS_P2;PMS_P1;PMS_P2;Temp;Humidity;BMP_temperature;BMP_pressure;BME280_temperature;BME280_humidity;BME280_pressure;Samples;Min_cycle;Max_cycle;Signal;HPM_P1;HPM_P2
2023/10/20 00:00:59;;;;;;;47.83;28.23;;;7.50;99.90;;;;;;5050204;28;20067;-85
2023/10/20 00:03:25;;;;;;;53.75;30.52;;;7.50;99.90;;;;;;5049959;28;20053;-86
2023/10/20 00:05:50;;;;;;;54.10;31.47;;;7.40;99.90;;;;;;5034464;28;20033;-85
2023/10/20 00:08:16;;;;;;;49.30;28.50;;;7.50;99.90;;;;;;5050296;28;20059;-85
2023/10/20 00:10:42;;;;;;;57.93;32.43;;;7.60;99.90;;;;;;5050359;28;20055;-85
2023/10/20 00:13:08;;;;;;;56.77;30.67;;;6.40;99.90;;;;;;5017891;28;20482;-85
2023/10/20 00:15:34;;;;;;;54.77;30.20;;;7.40;99.90;;;;;;5050341;28;20106;-85
2023/10/20 00:18:01;;;;;;;53.95;32.08;;;7.50;99.90;;;;;;5050317;28;20049;-85
2023/10/20 00:20:27;;;;;;;54.40;31.63;;;7.40;99.90;;;;;;5065195;28;20049;-86
2023/10/20 00:22:52;;;;;;;62.33;32.27;;;7.40;99.90;;;;;;5016374;28;20080;-85
2023/10/20 00:25:18;;;;;;;67.87;35.47;;;7.40;99.90;;;;;;5030948;28;20120;-85
2023/10/20 00:27:45;;;;;;;74.20;36.93;;;7.40;99.90;;;;;;5050419;28;20116;-84
2023/10/20 00:30:11;;;;;;;63.83;35.30;;;7.40;99.90;;;;;;5051940;28;20059;-84
2023/10/20 00:32:40;;;;;;;68.50;36.30;;;7.40;99.90;;;;;;5034819;28;20048;-84
2023/10/20 00:35:10;;;;;;;72.45;38.38;;;7.40;99.90;;;;;;5051024;28;20076;-85
2023/10/20 00:37:36;;;;;;;77.22;38.72;;;7.40;99.90;;;;;;5051425;28;20059;-85
2023/10/20 00:40:10;;;;;;;85.32;41.60;;;7.40;99.90;;;;;;5033052;28;20041;-85
2023/10/20 00:42:37;;;;;;;77.10;41.00;;;7.50;99.90;;;;;;5050195;28;20191;-85
2023/10/20 00:45:04;;;;;;;77.90;41.50;;;7.40;99.90;;;;;;5050811;28;20052;-85
2023/10/20 00:47:30;;;;;;;;;;;7.40;99.90;;;;;;5049887;28;20060;-85
2023/10/20 00:49:58;;;;;;;79.65;41.38;;;8.30;99.90;;;;;;5048422;28;20008;-85
2023/10/20 00:52:25;;;;;;;91.82;43.95;;;7.40;99.90;;;;;;5032833;28;20053;-84
2023/10/20 00:54:52;;;;;;;88.00;44.85;;;7.40;99.90;;;;;;5049366;28;20098;-85
2023/10/20 00:57:18;;;;;;;98.75;45.47;;;7.40;99.90;;;;;;5050100;28;20045;-85
2023/10/20 00:59:44;;;;;;;106.15;46.22;;;7.40;99.90;;;;;;5032907;28;20150;-85
2023/10/20 01:02:12;;;;;;;92.87;44.90;;;7.40;99.90;;;;;;5049144;28;20116;-85
2023/10/20 01:04:37;;;;;;;108.10;47.45;;;7.40;99.90;;;;;;5048773;28;20041;-85
2023/10/20 01:07:03;;;;;;;99.83;48.53;;;7.40;99.90;;;;;;5050527;28;20522;-85
2023/10/20 01:09:29;;;;;;;99.17;47.77;;;7.40;99.90;;;;;;5032967;28;20056;-85
2023/10/20 01:11:55;;;;;;;88.83;46.00;;;7.40;99.90;;;;;;5016426;28;20221;-85
2023/10/20 01:14:20;;;;;;;94.67;43.90;;;7.40;99.90;;;;;;5048948;28;20056;-85
2023/10/20 01:16:47;;;;;;;109.23;48.50;;;7.40;99.90;;;;;;5048688;28;20048;-85
2023/10/20 01:19:14;;;;;;;107.80;48.50;;;7.40;99.90;;;;;;5049917;28;20037;-85
2023/10/20 01:21:40;;;;;;;94.90;46.47;;;7.40;99.90;;;;;;5048326;28;20049;-85
2023/10/20 01:24:06;;;;;;;100.95;45.88;;;7.40;99.90;;;;;;5032062;28;20037;-85
2023/10/20 01:26:32;;;;;;;115.40;50.53;;;7.40;99.90;;;;;;5048919;28;20502;-85
2023/10/20 01:28:59;;;;;;;103.37;44.13;;;7.40;99.90;;;;;;5049578;28;20051;-85
2023/10/20 01:31:25;;;;;;;95.65;46.65;;;7.40;99.90;;;;;;5050065;28;20283;-85
2023/10/20 01:33:51;;;;;;;103.57;45.22;;;7.40;99.90;;;;;;5049257;28;20397;-85
2023/10/20 01:36:17;;;;;;;94.38;44.63;;;7.30;99.90;;;;;;5033069;28;20124;-85
2023/10/20 01:38:44;;;;;;;83.35;41.00;;;7.40;99.90;;;;;;5033886;28;20144;-85
2023/10/20 01:41:10;;;;;;;99.70;42.70;;;7.40;99.90;;;;;;5051423;28;20091;-85
2023/10/20 01:43:35;;;;;;;98.53;45.50;;;7.40;99.90;;;;;;5051464;28;20501;-85
2023/10/20 01:46:02;;;;;;;93.13;42.87;;;7.40;99.90;;;;;;5033554;28;20037;-84
2023/10/20 01:48:30;;;;;;;98.68;45.35;;;7.40;99.90;;;;;;5049139;28;20041;-85
2023/10/20 01:50:56;;;;;;;92.03;41.95;;;7.40;99.90;;;;;;5030844;28;20490;-85
2023/10/20 01:53:22;;;;;;;92.75;44.05;;;7.40;99.90;;;;;;5016440;28;20045;-85
2023/10/20 01:55:51;;;;;;;89.17;42.23;;;7.30;99.90;;;;;;5049782;28;20041;-85
2023/10/20 01:58:19;;;;;;;97.35;44.50;;;7.40;99.90;;;;;;5049883;28;20040;-85
2023/10/20 02:00:50;;;;;;;102.10;46.97;;;7.30;99.90;;;;;;5032287;28;20053;-85
2023/10/20 02:03:17;;;;;;;99.63;46.95;;;7.30;99.90;;;;;;5040079;28;20123;-85
2023/10/20 02:05:43;;;;;;;;;;;7.30;99.90;;;;;;5054961;28;20045;-85
2023/10/20 02:08:09;;;;;;;90.90;42.65;;;7.30;99.90;;;;;;5036574;28;19920;-85
2023/10/20 02:10:37;;;;;;;97.50;43.93;;;7.30;99.90;;;;;;5036624;28;20107;-85
2023/10/20 02:13:03;;;;;;;100.38;47.60;;;7.40;99.90;;;;;;5053479;28;20055;-85
2023/10/20 02:15:30;;;;;;;101.75;44.38;;;7.40;99.90;;;;;;5053750;28;20045;-84
2023/10/20 02:17:58;;;;;;;91.75;45.13;;;7.30;99.90;;;;;;5053734;28;20102;-85
2023/10/20 02:20:25;;;;;;;95.40;44.17;;;7.40;99.90;;;;;;5055097;28;20205;-85
2023/10/20 02:22:54;;;;;;;84.78;42.83;;;7.40;99.90;;;;;;5051525;28;20048;-85
2023/10/20 02:25:21;;;;;;;95.43;44.00;;;7.30;99.90;;;;;;5052325;28;20041;-85
2023/10/20 02:27:47;;;;;;;89.60;44.13;;;7.30;99.90;;;;;;5036861;28;20497;-85
2023/10/20 02:30:14;;;;;;;84.05;41.30;;;7.10;99.90;;;;;;5052591;28;20044;-84
2023/10/20 02:32:40;;;;;;;82.85;39.92;;;7.30;99.90;;;;;;5053430;28;20053;-85
2023/10/20 02:35:07;;;;;;;76.40;38.40;;;7.40;99.90;;;;;;5037050;28;20056;-84
2023/10/20 02:37:33;;;;;;;77.50;37.30;;;7.40;99.90;;;;;;5053522;28;20052;-85
2023/10/20 02:39:59;;;;;;;73.77;40.57;;;7.40;99.90;;;;;;5053450;28;20071;-85
2023/10/20 02:42:25;;;;;;;73.30;37.70;;;7.40;99.90;;;;;;5052644;28;20102;-85
2023/10/20 02:44:50;;;;;;;78.43;39.73;;;7.30;99.90;;;;;;5035646;28;20060;-84
2023/10/20 02:47:16;;;;;;;63.63;35.47;;;7.40;99.90;;;;;;5036829;28;20049;-84
2023/10/20 02:49:42;;;;;;;76.80;38.07;;;7.40;99.90;;;;;;5052719;28;20478;-85
2023/10/20 02:52:08;;;;;;;69.20;35.87;;;7.30;99.90;;;;;;5035721;28;20047;-85
2023/10/20 02:54:34;;;;;;;68.83;35.83;;;7.40;99.90;;;;;;5053068;28;20081;-84
2023/10/20 02:57:00;;;;;;;65.85;35.47;;;7.40;99.90;;;;;;5051080;28;20045;-84
2023/10/20 02:59:25;;;;;;;64.10;35.90;;;7.40;99.90;;;;;;5053167;28;20537;-84
2023/10/20 03:01:54;;;;;;;67.93;36.30;;;7.40;99.90;;;;;;5035738;28;20047;-85
2023/10/20 03:04:19;;;;;;;65.68;35.28;;;7.30;99.90;;;;;;5052473;28;20055;-85
2023/10/20 03:06:46;;;;;;;70.87;36.57;;;7.30;99.90;;;;;;5052631;28;20127;-84
2023/10/20 03:09:13;;;;;;;63.00;33.22;;;7.40;99.90;;;;;;5037140;28;20504;-85
2023/10/20 03:11:39;;;;;;;63.03;33.72;;;7.30;99.90;;;;;;5058420;28;20445;-85
2023/10/20 03:14:06;;;;;;;65.60;35.60;;;7.40;99.90;;;;;;5052435;28;20049;-85
2023/10/20 03:16:33;;;;;;;74.20;34.63;;;7.30;99.90;;;;;;5053707;28;20045;-85
2023/10/20 03:18:58;;;;;;;58.67;33.08;;;7.30;99.90;;;;;;5051752;28;20501;-84
2023/10/20 03:21:24;;;;;;;68.17;36.60;;;7.40;99.90;;;;;;5053837;28;20051;-84
2023/10/20 03:23:50;;;;;;;54.90;31.73;;;7.60;99.90;;;;;;5052177;28;20394;-85
2023/10/20 03:26:15;;;;;;;64.03;32.93;;;7.30;99.90;;;;;;5051104;28;20101;-84
2023/10/20 03:28:41;;;;;;;64.27;35.57;;;6.40;99.90;;;;;;5035094;28;20045;-85
2023/10/20 03:31:07;;;;;;;62.43;35.03;;;7.30;99.90;;;;;;5051438;28;20060;-84
2023/10/20 03:33:33;;;;;;;59.70;32.57;;;7.30;99.90;;;;;;5035717;28;20372;-84
2023/10/20 03:36:03;;;;;;;52.63;32.57;;;7.30;99.90;;;;;;5018793;28;20075;-84
2023/10/20 03:38:29;;;;;;;60.40;34.22;;;7.30;99.90;;;;;;5052011;28;20483;-85
2023/10/20 03:41:06;;;;;;;57.80;32.28;;;7.30;99.90;;;;;;5051892;28;20048;-85
2023/10/20 03:43:31;;;;;;;56.58;32.60;;;7.30;99.90;;;;;;5052659;28;20148;-84
2023/10/20 03:45:59;;;;;;;59.60;32.77;;;7.30;99.90;;;;;;5051223;28;20526;-85
2023/10/20 03:48:27;;;;;;;56.03;32.25;;;7.30;99.90;;;;;;5036108;28;20135;-85
2023/10/20 03:50:53;;;;;;;56.70;31.88;;;7.30;99.90;;;;;;5035081;28;20060;-85
2023/10/20 03:53:22;;;;;;;56.17;34.03;;;7.30;99.90;;;;;;5050631;28;20128;-84
2023/10/20 03:56:02;;;;;;;49.65;29.73;;;7.30;99.90;;;;;;5018677;28;20120;-85
2023/10/20 03:58:32;;;;;;;51.28;30.08;;;7.20;99.90;;;;;;5052803;28;20049;-85
2023/10/20 04:01:02;;;;;;;50.92;28.95;;;7.40;99.90;;;;;;5052189;28;20130;-84
2023/10/20 04:03:31;;;;;;;55.10;31.35;;;7.20;99.90;;;;;;5052227;28;20048;-84
2023/10/20 04:05:58;;;;;;;50.10;29.67;;;7.20;99.90;;;;;;5051143;28;20049;-85
2023/10/20 04:08:24;;;;;;;47.88;28.70;;;7.20;99.90;;;;;;5034028;28;20049;-84
2023/10/20 04:10:59;;;;;;;54.40;28.30;;;7.20;99.90;;;;;;5034156;28;20044;-84
2023/10/20 04:13:25;;;;;;;55.17;28.27;;;7.20;99.90;;;;;;5052669;28;20060;-84
2023/10/20 04:15:52;;;;;;;41.92;27.55;;;7.20;99.90;;;;;;5051658;28;20052;-85
2023/10/20 04:18:19;;;;;;;47.47;27.75;;;7.10;99.90;;;;;;5056132;28;20127;-85
2023/10/20 04:20:48;;;;;;;47.00;27.20;;;7.20;99.90;;;;;;5068286;28;20056;-84
2023/10/20 04:23:15;;;;;;;42.03;27.38;;;7.20;99.90;;;;;;5068099;28;20107;-85
2023/10/20 04:25:52;;;;;;;56.83;28.48;;;7.10;99.90;;;;;;5050972;28;20045;-85
2023/10/20 04:28:20;;;;;;;53.97;28.95;;;7.10;99.90;;;;;;5020669;28;20055;-84
2023/10/20 04:42:00;;;;;;;44.47;26.77;;;7.10;99.90;;;;;;5037659;28;20500;-84
2023/10/20 04:44:58;;;;;;;45.75;26.50;;;7.10;99.90;;;;;;5037417;28;20132;-85
2023/10/20 04:47:44;;;;;;;52.78;27.90;;;7.10;99.90;;;;;;5033693;28;20051;-85
2023/10/20 04:53:12;;;;;;;49.45;29.02;;;7.10;99.90;;;;;;5050775;28;20060;-85
2023/10/20 04:58:35;;;;;;;49.40;27.63;;;7.10;99.90;;;;;;5050585;28;20057;-85
2023/10/20 05:01:07;;;;;;;49.08;26.80;;;7.10;99.90;;;;;;5033946;28;20074;-85
2023/10/20 05:03:46;;;;;;;45.75;27.73;;;7.00;99.90;;;;;;5035089;28;20045;-84
2023/10/20 05:08:57;;;;;;;45.95;26.63;;;7.10;99.90;;;;;;5067949;28;20050;-85
2023/10/20 05:11:24;;;;;;;48.23;27.13;;;7.50;99.90;;;;;;5044400;28;20045;-84
2023/10/20 05:13:52;;;;;;;;;;;7.00;99.90;;;;;;5033465;28;20045;-85
2023/10/20 05:16:21;;;;;;;40.88;25.48;;;7.00;99.90;;;;;;5044873;28;19942;-84
2023/10/20 05:18:47;;;;;;;40.75;24.50;;;7.00;99.90;;;;;;5031638;28;20092;-85
2023/10/20 05:21:13;;;;;;;38.27;24.40;;;7.10;99.90;;;;;;5053770;28;20072;-84
2023/10/20 05:23:40;;;;;;;42.13;24.73;;;7.10;99.90;;;;;;5034864;28;20048;-84
2023/10/20 05:26:08;;;;;;;44.75;25.48;;;7.10;99.90;;;;;;5050914;28;20509;-85
2023/10/20 05:28:34;;;;;;;34.90;23.05;;;7.10;99.90;;;;;;5033172;28;20043;-85
2023/10/20 05:31:00;;;;;;;30.47;23.00;;;7.10;99.90;;;;;;5049639;28;20045;-85
2023/10/20 05:33:26;;;;;;;39.10;24.23;;;7.10;99.90;;;;;;5050365;28;20041;-85
2023/10/20 05:35:52;;;;;;;40.00;23.20;;;7.10;99.90;;;;;;5034740;28;20063;-85
2023/10/20 05:38:19;;;;;;;31.25;22.05;;;7.10;99.90;;;;;;5037636;28;20136;-85
2023/10/20 05:40:55;;;;;;;35.88;21.95;;;7.10;99.90;;;;;;5037156;28;20053;-84
2023/10/20 05:43:20;;;;;;;35.28;23.33;;;7.00;99.90;;;;;;5053950;28;20124;-84
2023/10/20 05:45:46;;;;;;;31.77;21.30;;;7.10;99.90;;;;;;5037541;28;20132;-84
2023/10/20 05:48:12;;;;;;;30.60;19.63;;;7.10;99.90;;;;;;5036885;28;20057;-84
2023/10/20 05:50:38;;;;;;;31.45;19.60;;;7.00;99.90;;;;;;5051647;28;20049;-85
2023/10/20 05:53:05;;;;;;;28.73;18.43;;;7.10;99.90;;;;;;5054181;28;20059;-85
2023/10/20 05:55:32;;;;;;;28.92;19.42;;;7.10;99.90;;;;;;5054787;28;20539;-84
2023/10/20 05:57:58;;;;;;;28.58;19.00;;;7.10;99.90;;;;;;5054822;28;20521;-84
2023/10/20 06:00:24;;;;;;;26.13;17.55;;;7.10;99.90;;;;;;5056320;28;20037;-84
2023/10/20 06:02:50;;;;;;;27.20;18.43;;;7.10;99.90;;;;;;5055925;28;20120;-85
2023/10/20 06:05:16;;;;;;;22.37;16.20;;;7.10;99.90;;;;;;5050772;28;20045;-84
2023/10/20 06:07:43;;;;;;;29.48;19.52;;;7.10;99.90;;;;;;5036511;28;20045;-85
2023/10/20 06:10:09;;;;;;;;;;;7.00;99.90;;;;;;5069345;28;20132;-84
2023/10/20 06:12:34;;;;;;;20.38;15.07;;;7.10;99.90;;;;;;5066356;28;20042;-85
2023/10/20 06:15:00;;;;;;;24.53;16.30;;;7.10;99.90;;;;;;5036801;28;20060;-84
2023/10/20 06:17:26;;;;;;;22.30;15.70;;;7.00;99.90;;;;;;5037135;28;20433;-85
2023/10/20 06:19:52;;;;;;;20.40;15.00;;;7.10;99.90;;;;;;5053978;28;20047;-87
2023/10/20 06:22:20;;;;;;;23.88;15.50;;;7.10;99.90;;;;;;5050648;28;20103;-82
2023/10/20 06:24:47;;;;;;;23.47;15.33;;;7.10;99.90;;;;;;5051405;28;20052;-81
2023/10/20 06:27:12;;;;;;;;;;;7.10;99.90;;;;;;5054108;28;20120;-81
2023/10/20 06:29:46;;;;;;;19.25;13.63;;;7.00;99.90;;;;;;5083313;28;20016;-80
2023/10/20 06:32:32;;;;;;;19.90;14.55;;;7.00;99.90;;;;;;5069867;28;20056;-80
2023/10/20 06:35:00;;;;;;;19.27;13.82;;;7.10;99.90;;;;;;5048376;28;20053;-84
2023/10/20 06:37:36;;;;;;;17.63;13.55;;;7.10;99.90;;;;;;5021935;28;20041;-81
2023/10/20 06:40:05;;;;;;;21.20;14.00;;;7.10;99.90;;;;;;5017357;28;20042;-81
2023/10/20 06:42:31;;;;;;;17.75;12.43;;;7.10;99.90;;;;;;5035112;28;20567;-81
2023/10/20 06:44:57;;;;;;;20.73;13.07;;;7.10;99.90;;;;;;5053137;28;20120;-81
2023/10/20 06:47:23;;;;;;;16.83;12.50;;;7.10;99.90;;;;;;5051699;28;20061;-81
2023/10/20 06:49:48;;;;;;;18.00;12.27;;;7.10;99.90;;;;;;5053035;28;20076;-81
2023/10/20 06:52:17;;;;;;;14.90;11.43;;;7.10;99.90;;;;;;5051723;28;20125;-81
2023/10/20 06:54:48;;;;;;;16.08;12.00;;;7.10;99.90;;;;;;5044324;28;20073;-82
2023/10/20 06:57:14;;;;;;;14.38;10.45;;;7.50;99.90;;;;;;5061553;28;20051;-82
2023/10/20 06:59:40;;;;;;;15.23;10.23;;;7.10;99.90;;;;;;5047910;28;20549;-82
2023/10/20 07:02:06;;;;;;;13.83;11.47;;;7.10;99.90;;;;;;5045702;28;20045;-82
2023/10/20 07:04:32;;;;;;;14.97;9.20;;;7.10;99.90;;;;;;5048808;28;20041;-81
2023/10/20 07:06:58;;;;;;;13.33;10.17;;;7.10;99.90;;;;;;5035025;28;20080;-82
2023/10/20 07:09:24;;;;;;;12.27;9.93;;;7.10;99.90;;;;;;5048127;28;20056;-82
2023/10/20 07:11:49;;;;;;;15.10;9.90;;;7.10;99.90;;;;;;5062365;28;20078;-82
2023/10/20 07:14:15;;;;;;;13.40;9.80;;;7.10;99.90;;;;;;5043963;28;20064;-82
2023/10/20 07:16:41;;;;;;;12.83;9.93;;;7.10;99.90;;;;;;5035108;28;20032;-82
2023/10/20 07:19:08;;;;;;;13.83;9.13;;;7.10;99.90;;;;;;5044423;28;20292;-82
2023/10/20 07:21:34;;;;;;;11.65;9.73;;;7.10;99.90;;;;;;5045489;28;20053;-82
2023/10/20 07:24:02;;;;;;;14.02;9.02;;;7.10;99.90;;;;;;5048007;28;20072;-82
2023/10/20 07:26:29;;;;;;;12.52;8.93;;;7.10;99.90;;;;;;5068370;28;20060;-82
2023/10/20 07:28:54;;;;;;;12.23;8.60;;;7.20;99.90;;;;;;5040559;28;20128;-82
2023/10/20 07:31:21;;;;;;;12.30;9.17;;;7.10;99.90;;;;;;5047634;28;20124;-82
2023/10/20 07:33:49;;;;;;;13.55;9.35;;;7.10;99.90;;;;;;5034404;28;20102;-82
2023/10/20 07:36:19;;;;;;;12.63;9.40;;;7.10;99.90;;;;;;5045346;28;20080;-83
2023/10/20 07:38:45;;;;;;;13.25;8.70;;;7.10;99.90;;;;;;5048169;28;20387;-81
2023/10/20 07:41:12;;;;;;;13.30;9.90;;;7.10;99.90;;;;;;5037593;28;20057;-82
2023/10/20 07:43:39;;;;;;;14.18;10.00;;;7.10;99.90;;;;;;5043045;28;20041;-82
2023/10/20 07:46:05;;;;;;;10.88;9.45;;;7.10;99.90;;;;;;5047414;28;20049;-81
2023/10/20 07:48:39;;;;;;;12.47;8.33;;;7.10;99.90;;;;;;5028761;28;20044;-81
2023/10/20 07:51:07;;;;;;;11.35;8.52;;;7.10;99.90;;;;;;5031695;28;20102;-81
2023/10/20 07:53:33;;;;;;;11.20;7.73;;;7.10;99.90;;;;;;5044752;28;20041;-81
2023/10/20 07:55:59;;;;;;;13.67;8.87;;;7.00;99.90;;;;;;5043775;28;20049;-81
2023/10/20 07:58:24;;;;;;;10.20;7.47;;;7.00;99.90;;;;;;5048816;28;20124;-82
2023/10/20 08:00:51;;;;;;;9.77;7.17;;;7.00;99.90;;;;;;5044702;28;20533;-81
2023/10/20 08:03:16;;;;;;;9.52;7.78;;;7.10;99.90;;;;;;5049981;28;20124;-79
2023/10/20 08:05:42;;;;;;;11.77;6.77;;;7.00;99.90;;;;;;5037083;28;20068;-79
2023/10/20 08:08:08;;;;;;;6.57;5.87;;;7.00;99.90;;;;;;5035553;28;20041;-79
2023/10/20 08:10:36;;;;;;;7.95;5.85;;;7.00;99.90;;;;;;5036516;28;20057;-80
2023/10/20 08:13:02;;;;;;;8.23;5.82;;;7.00;99.90;;;;;;5074003;28;20418;-80
2023/10/20 08:15:29;;;;;;;9.77;6.10;;;7.00;99.90;;;;;;5033004;28;20057;-81
2023/10/20 08:17:55;;;;;;;6.75;5.18;;;7.00;99.90;;;;;;5045378;28;20044;-80
2023/10/20 08:20:21;;;;;;;6.43;5.22;;;7.00;99.90;;;;;;5049600;28;20072;-80
2023/10/20 08:22:47;;;;;;;6.78;4.78;;;6.90;99.90;;;;;;5036362;28;20040;-81
2023/10/20 08:25:14;;;;;;;7.78;4.75;;;7.00;99.90;;;;;;5071841;28;20048;-81
2023/10/20 08:27:40;;;;;;;6.88;4.72;;;7.00;99.90;;;;;;5059508;28;20107;-81
2023/10/20 08:30:07;;;;;;;6.43;4.77;;;6.90;99.90;;;;;;5052990;28;20052;-80
2023/10/20 08:32:33;;;;;;;5.35;4.03;;;6.90;99.90;;;;;;5051711;28;20045;-82
2023/10/20 08:34:59;;;;;;;6.40;4.23;;;6.90;99.90;;;;;;5051355;28;20494;-81
2023/10/20 08:37:25;;;;;;;5.60;5.00;;;6.90;99.90;;;;;;5051953;28;20044;-82
2023/10/20 08:39:51;;;;;;;4.10;3.70;;;7.00;99.90;;;;;;5018040;28;20095;-81
2023/10/20 08:42:18;;;;;;;5.85;4.00;;;6.90;99.90;;;;;;5034828;28;20052;-81
2023/10/20 08:44:43;;;;;;;;;;;6.80;99.90;;;;;;5034391;28;20076;-81
2023/10/20 08:47:12;;;;;;;5.88;4.90;;;6.80;99.90;;;;;;5048987;28;19983;-81
2023/10/20 08:49:39;;;;;;;4.78;4.20;;;6.80;99.90;;;;;;5035417;28;20087;-81
2023/10/20 08:52:10;;;;;;;4.78;4.30;;;6.80;99.90;;;;;;5060903;28;20123;-82
2023/10/20 08:54:36;;;;;;;4.28;3.88;;;6.80;99.90;;;;;;5046412;28;20124;-81
2023/10/20 08:57:03;;;;;;;6.85;4.05;;;6.80;99.90;;;;;;5051263;28;20127;-81
2023/10/20 08:59:28;;;;;;;5.90;4.03;;;6.80;99.90;;;;;;5047348;28;20478;-81
2023/10/20 09:01:55;;;;;;;5.40;3.90;;;6.80;99.90;;;;;;5051313;28;20056;-80
2023/10/20 09:04:25;;;;;;;4.72;4.00;;;6.80;99.90;;;;;;5049072;28;20051;-81
2023/10/20 09:06:52;;;;;;;5.45;3.80;;;6.80;99.90;;;;;;5048962;28;20045;-80
2023/10/20 09:09:19;;;;;;;5.63;4.10;;;6.70;99.90;;;;;;5049442;28;20037;-80
2023/10/20 09:11:45;;;;;;;4.28;3.33;;;6.70;99.90;;;;;;5050264;28;20063;-80
2023/10/20 09:14:12;;;;;;;4.15;3.47;;;6.70;99.90;;;;;;5055327;28;20132;-81
2023/10/20 09:16:42;;;;;;;7.72;3.95;;;6.70;99.90;;;;;;5032883;28;20055;-80
2023/10/20 09:19:12;;;;;;;3.92;3.53;;;6.70;99.90;;;;;;5050765;28;20040;-80
2023/10/20 09:21:42;;;;;;;4.00;3.67;;;6.70;99.90;;;;;;5052692;28;20083;-80
2023/10/20 09:24:09;;;;;;;3.38;3.08;;;6.60;99.90;;;;;;5065321;28;20041;-81
2023/10/20 09:26:37;;;;;;;3.55;3.25;;;6.70;99.90;;;;;;5047964;28;20080;-81
2023/10/20 09:29:05;;;;;;;4.05;3.00;;;6.60;99.90;;;;;;5054719;28;20094;-80
2023/10/20 09:31:31;;;;;;;4.53;3.10;;;6.60;99.90;;;;;;5052561;28;20072;-83
2023/10/20 09:33:58;;;;;;;3.40;3.10;;;6.60;99.90;;;;;;5090537;28;20052;-81
2023/10/20 09:36:25;;;;;;;4.82;2.85;;;6.60;99.90;;;;;;5057321;28;20560;-83
2023/10/20 09:38:53;;;;;;;3.13;2.70;;;6.60;99.90;;;;;;5064723;28;20040;-82
2023/10/20 09:41:24;;;;;;;3.65;2.90;;;6.60;99.90;;;;;;5062656;28;20056;-83
2023/10/20 09:43:52;;;;;;;3.40;3.00;;;6.50;99.90;;;;;;5060073;28;20045;-83
2023/10/20 09:46:27;;;;;;;3.58;2.47;;;6.50;99.90;;;;;;5045733;28;20048;-82
2023/10/20 09:48:55;;;;;;;3.08;2.63;;;6.50;99.90;;;;;;5055352;28;20111;-82
2023/10/20 09:51:21;;;;;;;3.60;3.03;;;6.50;99.90;;;;;;5054505;28;20055;-81
2023/10/20 09:53:48;;;;;;;3.90;2.40;;;6.50;99.90;;;;;;5055430;28;20045;-82
2023/10/20 09:56:15;;;;;;;2.88;2.55;;;6.50;99.90;;;;;;5054376;28;20053;-82
2023/10/20 09:58:41;;;;;;;3.22;2.85;;;6.50;99.90;;;;;;5055180;28;20383;-82
2023/10/20 10:01:07;;;;;;;6.83;3.63;;;6.50;99.90;;;;;;5054786;28;20048;-82
2023/10/20 10:03:45;;;;;;;2.53;2.33;;;6.50;99.90;;;;;;5052507;28;20060;-82
2023/10/20 10:06:16;;;;;;;2.00;1.83;;;6.50;99.90;;;;;;5053867;28;20415;-82
2023/10/20 10:08:46;;;;;;;2.42;2.22;;;6.50;99.90;;;;;;5054994;28;20037;-82
2023/10/20 10:11:28;;;;;;;2.20;1.80;;;6.40;99.90;;;;;;5054755;28;20095;-81
2023/10/20 10:14:07;;;;;;;1.95;1.83;;;6.40;99.90;;;;;;5054064;28;20045;-82
2023/10/20 10:16:55;;;;;;;2.78;2.00;;;6.40;99.90;;;;;;5053796;28;20090;-82
2023/10/20 10:19:26;;;;;;;3.00;2.08;;;6.40;99.90;;;;;;5037208;28;20044;-82
2023/10/20 10:21:53;;;;;;;3.00;2.25;;;6.40;99.90;;;;;;5051556;28;20069;-82
2023/10/20 10:24:22;;;;;;;2.13;1.88;;;6.40;99.90;;;;;;5037887;28;20136;-82
2023/10/20 10:27:02;;;;;;;2.80;2.17;;;6.40;99.90;;;;;;5052430;28;20070;-82
2023/10/20 10:29:53;;;;;;;2.60;2.17;;;6.40;99.90;;;;;;5052894;28;20033;-82
2023/10/20 10:32:21;;;;;;;4.20;2.83;;;6.40;99.90;;;;;;5036019;28;20041;-81
2023/10/20 10:34:49;;;;;;;3.70;2.58;;;6.50;99.90;;;;;;5051864;28;20049;-81
2023/10/20 10:37:34;;;;;;;2.40;2.20;;;6.40;99.90;;;;;;5049877;28;20041;-81
2023/10/20 10:40:07;;;;;;;2.80;2.10;;;6.30;99.90;;;;;;5035060;28;20887;-81
2023/10/20 10:42:38;;;;;;;2.63;2.00;;;6.30;99.90;;;;;;5054913;28;20049;-82
2023/10/20 10:45:23;;;;;;;1.77;1.67;;;6.30;99.90;;;;;;5052976;28;20064;-81
2023/10/20 10:48:05;;;;;;;1.70;1.60;;;6.30;99.90;;;;;;5036032;28;20057;-82
2023/10/20 10:50:32;;;;;;;1.98;1.42;;;6.30;99.90;;;;;;5052674;28;20422;-82
2023/10/20 10:52:59;;;;;;;1.27;1.08;;;6.30;99.90;;;;;;5054160;28;20053;-82
2023/10/20 10:55:26;;;;;;;1.70;1.25;;;6.70;99.90;;;;;;5063580;28;20059;-82
2023/10/20 10:57:52;;;;;;;1.23;1.13;;;6.30;99.90;;;;;;5052984;28;20049;-82
2023/10/20 11:00:18;;;;;;;3.27;1.40;;;6.30;99.90;;;;;;5053277;28;20049;-81
2023/10/20 11:02:44;;;;;;;2.30;1.30;;;6.30;99.90;;;;;;5053428;28;20123;-82
2023/10/20 11:05:11;;;;;;;1.15;1.05;;;6.20;99.90;;;;;;5049680;28;20033;-81
2023/10/20 11:07:37;;;;;;;1.45;1.35;;;6.20;99.90;;;;;;5053429;28;20093;-81
2023/10/20 11:10:04;;;;;;;1.23;1.10;;;6.20;99.90;;;;;;5053814;28;20041;-81
2023/10/20 11:12:32;;;;;;;1.48;1.20;;;6.20;99.90;;;;;;5054371;28;20049;-81
2023/10/20 11:15:00;;;;;;;1.40;1.20;;;6.30;99.90;;;;;;5052713;28;20049;-81
2023/10/20 11:17:27;;;;;;;1.45;1.35;;;6.20;99.90;;;;;;5051120;28;20048;-81
2023/10/20 11:19:53;;;;;;;3.08;1.30;;;6.30;99.90;;;;;;5084782;28;20128;-82
2023/10/20 11:22:19;;;;;;;1.33;1.23;;;6.20;99.90;;;;;;5051490;28;20171;-84
2023/10/20 11:24:55;;;;;;;2.27;1.13;;;6.30;99.90;;;;;;5033191;28;20140;-84
2023/10/20 11:27:21;;;;;;;3.47;1.33;;;6.30;99.90;;;;;;5043526;28;20102;-82
2023/10/20 11:29:49;;;;;;;1.77;1.57;;;6.30;99.90;;;;;;5064389;28;20087;-84
2023/10/20 11:32:14;;;;;;;1.38;1.00;;;6.30;99.90;;;;;;5033507;28;20061;-81
2023/10/20 11:34:40;;;;;;;2.17;1.27;;;6.30;99.90;;;;;;5061230;28;20075;-83
2023/10/20 11:37:07;;;;;;;1.17;0.93;;;6.30;99.90;;;;;;5041235;28;20548;-83
2023/10/20 11:39:36;;;;;;;2.00;1.60;;;6.20;99.90;;;;;;5052661;28;20122;-81
2023/10/20 11:42:03;;;;;;;1.60;1.50;;;6.30;99.90;;;;;;5035685;28;20080;-82
2023/10/20 11:44:28;;;;;;;1.27;1.10;;;6.30;99.90;;;;;;5035205;28;20053;-82
2023/10/20 11:46:55;;;;;;;4.57;1.10;;;6.20;99.90;;;;;;5053479;28;20057;-82
2023/10/20 11:49:21;;;;;;;1.10;1.00;;;6.20;99.90;;;;;;5053459;28;20052;-81
2023/10/20 11:51:47;;;;;;;1.20;1.10;;;6.20;99.90;;;;;;5050488;28;20049;-81
2023/10/20 11:54:13;;;;;;;2.63;1.13;;;6.30;99.90;;;;;;5054273;28;20110;-81
2023/10/20 11:56:40;;;;;;;1.45;1.35;;;6.20;99.90;;;;;;5051686;28;20369;-81
2023/10/20 11:59:06;;;;;;;1.35;1.00;;;6.20;99.90;;;;;;5052356;28;20078;-81
2023/10/20 12:01:32;;;;;;;4.07;1.48;;;6.30;99.90;;;;;;5051242;28;20499;-81
2023/10/20 12:04:05;;;;;;;2.85;1.10;;;6.30;99.90;;;;;;5033700;28;20372;-82
2023/10/20 12:06:31;;;;;;;2.20;1.20;;;6.20;99.90;;;;;;5034452;28;20131;-81
2023/10/20 12:08:57;;;;;;;2.00;1.20;;;6.20;99.90;;;;;;5051747;28;21863;-82
2023/10/20 12:11:23;;;;;;;1.23;1.13;;;6.20;99.90;;;;;;5049635;28;20565;-82
2023/10/20 12:13:48;;;;;;;2.83;1.10;;;6.20;99.90;;;;;;5049750;28;20505;-81
2023/10/20 12:16:15;;;;;;;1.87;1.10;;;6.20;99.90;;;;;;5049605;28;20048;-82
2023/10/20 12:18:42;;;;;;;1.10;1.02;;;6.20;99.90;;;;;;5050783;28;20491;-81
2023/10/20 12:21:07;;;;;;;;;;;6.20;99.90;;;;;;5051213;28;20040;-82
2023/10/20 12:23:34;;;;;;;1.00;1.00;;;6.20;99.90;;;;;;5050710;28;20270;-82
2023/10/20 12:26:00;;;;;;;1.08;0.90;;;6.20;99.90;;;;;;5050879;28;20430;-82
2023/10/20 12:28:26;;;;;;;0.80;0.80;;;6.20;99.90;;;;;;5032797;28;20555;-81
2023/10/20 12:30:52;;;;;;;1.92;1.10;;;6.20;99.90;;;;;;5047557;28;20040;-82
2023/10/20 12:33:18;;;;;;;0.93;0.93;;;6.20;99.90;;;;;;5010486;28;20107;-82
2023/10/20 12:35:43;;;;;;;1.10;1.00;;;6.20;99.90;;;;;;5052011;28;20045;-86
2023/10/20 12:38:09;;;;;;;0.73;0.73;;;6.20;99.90;;;;;;5050742;28;20080;-82
2023/10/20 12:40:39;;;;;;;2.33;0.80;;;6.20;99.90;;;;;;5051584;28;20490;-83
2023/10/20 12:43:09;;;;;;;1.83;0.90;;;6.20;99.90;;;;;;5047664;28;20136;-82
2023/10/20 12:45:38;;;;;;;2.95;0.85;;;6.20;99.90;;;;;;5048921;28;20102;-82
2023/10/20 12:48:04;;;;;;;1.33;1.17;;;6.20;99.90;;;;;;5031421;28;20110;-83
2023/10/20 12:50:32;;;;;;;0.77;0.70;;;6.20;99.90;;;;;;5053540;28;20570;-82
2023/10/20 12:52:59;;;;;;;1.05;0.80;;;6.20;99.90;;;;;;5050724;28;20068;-82
2023/10/20 12:55:26;;;;;;;0.95;0.85;;;6.20;99.90;;;;;;5053174;28;20053;-82
2023/10/20 12:57:52;;;;;;;;;;;6.20;99.90;;;;;;5050625;28;20071;-82
2023/10/20 13:00:19;;;;;;;0.80;0.80;;;6.20;99.90;;;;;;5049547;28;19921;-82
2023/10/20 13:02:52;;;;;;;1.48;0.82;;;6.20;99.90;;;;;;5052492;28;20055;-83
2023/10/20 13:05:19;;;;;;;1.20;1.10;;;6.10;99.90;;;;;;5052303;28;20490;-82
2023/10/20 13:07:44;;;;;;;0.68;0.68;;;6.10;99.90;;;;;;5052600;28;20053;-82
2023/10/20 13:10:10;;;;;;;1.03;0.90;;;6.10;99.90;;;;;;5051509;28;20135;-82